Time;durP1;ratioP1;P1;durP2;ratioP2;P2;SDS_P1;SDS_P2;PMS_P1;PMS_P2;Temp;Humidity;BMP_temperature;BMP_pressure;BME280_temperature;BME280_humidity;BME280_pressure;Samples;Min_cycle;Max_cycle;Signal;HPM_P1;HPM_P2
2022/04/26 03:38:23;;;;;;;17.80;16.50;;;;;;;12.17;92.22;98237.25;4996406;28;102919;-63
2022/04/26 03:40:51;;;;;;;23.37;21.57;;;;;;;12.01;92.70;98236.06;4997561;28;103748;-63
2022/04/26 03:43:19;;;;;;;19.73;18.23;;;;;;;12.16;92.38;98246.16;4997252;28;103404;-64
2022/04/26 03:45:48;;;;;;;23.00;21.17;;;;;;;12.14;91.56;98242.81;4981331;28;103807;-67
2022/04/26 03:48:16;;;;;;;24.52;22.52;;;;;;;11.83;92.90;98243.75;5001191;28;102674;-68
2022/04/26 03:50:47;;;;;;;20.42;18.85;;;;;;;12.16;92.84;98246.16;4996928;28;103623;-65
2022/04/26 03:53:15;;;;;;;23.15;21.25;;;;;;;12.30;90.49;98236.19;4995339;28;104166;-62
2022/04/26 03:55:43;;;;;;;25.95;23.95;;;;;;;11.86;93.05;98242.63;4997546;28;102967;-63
2022/04/26 03:58:12;;;;;;;21.45;19.85;;;;;;;12.11;91.26;98240.41;4996459;28;102694;-63
2022/04/26 04:00:40;;;;;;;16.67;15.27;;;;;;;12.19;92.16;98247.69;4994386;28;102702;-66
2022/04/26 04:03:08;;;;;;;23.52;21.60;;;;;;;11.84;92.12;98250.72;4996931;28;103342;-63
2022/04/26 04:05:37;;;;;;;23.42;21.63;;;;;;;11.62;93.59;98243.69;4995810;28;103199;-65
2022/04/26 04:08:07;;;;;;;20.48;18.88;;;;;;;11.64;95.72;98254.16;4978115;28;102729;-65
2022/04/26 04:10:35;;;;;;;19.10;17.60;;;;;;;11.95;93.80;98257.75;4984187;28;104033;-63
2022/04/26 04:13:03;;;;;;;19.85;18.35;;;;;;;12.10;91.97;98262.56;4997425;28;103610;-65
2022/04/26 04:15:31;;;;;;;19.58;18.05;;;;;;;12.14;91.91;98263.16;4996581;28;103208;-64
2022/04/26 04:17:59;;;;;;;16.40;15.20;;;;;;;12.34;90.70;98264.09;4990396;28;103228;-64
2022/04/26 04:20:29;;;;;;;21.10;19.42;;;;;;;12.26;89.06;98263.91;4994221;28;103740;-64
2022/04/26 04:23:00;;;;;;;19.50;18.00;;;;;;;12.09;90.31;98268.00;4997646;28;103393;-64
2022/04/26 04:25:29;;;;;;;16.70;15.50;;;;;;;12.20;91.39;98274.06;4995894;28;103233;-63
2022/04/26 04:27:58;;;;;;;17.90;16.50;;;;;;;12.31;90.57;98269.66;4993323;28;104039;-63
2022/04/26 04:30:26;;;;;;;17.55;16.20;;;;;;;12.40;89.25;98274.16;4998055;28;102830;-59
2022/04/26 04:32:54;;;;;;;18.50;17.10;;;;;;;12.30;90.24;98278.56;4992780;28;104066;-62
2022/04/26 04:35:22;;;;;;;15.63;14.50;;;;;;;12.48;89.83;98290.22;5001863;28;103207;-67
2022/04/26 04:37:50;;;;;;;21.17;19.47;;;;;;;12.10;90.32;98289.03;4998603;28;102873;-63
2022/04/26 04:40:18;;;;;;;17.50;16.20;;;;;;;12.37;90.29;98287.66;4995382;28;104116;-63
2022/04/26 04:42:48;;;;;;;23.67;21.77;;;;;;;12.04;90.95;98289.56;4974194;28;104379;-63
2022/04/26 04:45:16;;;;;;;15.30;14.20;;;;;;;12.38;91.27;98292.00;4981574;28;104724;-68
2022/04/26 04:47:44;;;;;;;14.75;13.65;;;;;;;12.60;90.31;98291.81;5004932;28;102618;-68
2022/04/26 04:50:12;;;;;;;12.83;11.93;;;;;;;12.70;89.18;98290.03;4999151;28;102736;-63
2022/04/26 04:52:40;;;;;;;16.30;15.10;;;;;;;12.71;88.23;98284.63;4994181;28;104269;-63
2022/04/26 04:55:11;;;;;;;23.70;21.60;;;;;;;12.29;88.95;98279.53;4997493;28;103161;-64
2022/04/26 04:57:43;;;;;;;22.42;20.63;;;;;;;12.16;91.37;98277.94;4994277;28;103308;-62
2022/04/26 05:00:13;;;;;;;15.43;14.27;;;;;;;12.50;90.58;98285.63;4994591;28;103944;-62
2022/04/26 05:02:41;;;;;;;14.02;12.93;;;;;;;12.68;89.29;98278.75;4996555;28;104638;-63
2022/04/26 05:05:10;;;;;;;18.87;17.37;;;;;;;12.75;88.46;98279.88;4996511;28;103182;-63
2022/04/26 05:07:38;;;;;;;15.85;14.65;;;;;;;12.76;88.35;98273.59;4995848;28;102744;-67
2022/04/26 05:10:07;;;;;;;15.48;14.38;;;;;;;12.86;88.03;98278.94;4998363;28;104031;-68
2022/04/26 05:12:36;;;;;;;18.48;16.98;;;;;;;12.90;87.42;98278.53;4995136;28;103567;-63
2022/04/26 05:15:05;;;;;;;15.45;14.35;;;;;;;12.99;87.00;98272.44;4988149;28;103288;-62
2022/04/26 05:17:34;;;;;;;17.80;16.45;;;;;;;12.95;87.24;98273.66;4991818;27;102798;-63
2022/04/26 05:20:04;;;;;;;16.58;15.27;;;;;;;12.94;87.25;98273.81;4954104;28;103972;-63
2022/04/26 05:24:53;;;;;;;16.42;15.23;;;;;;;12.98;87.12;98283.16;4983483;28;103351;-62
2022/04/26 05:25:22;;;;;;;15.98;14.77;;;;;;;13.07;86.46;98280.56;4982383;28;103091;-63
2022/04/26 05:27:50;;;;;;;16.93;15.60;;;;;;;12.99;86.54;98272.44;4984831;28;102863;-63
2022/04/26 05:30:18;;;;;;;18.13;16.73;;;;;;;13.01;87.14;98281.06;4953131;28;102756;-62
2022/04/26 05:32:47;;;;;;;24.70;22.60;;;;;;;12.03;90.94;98281.75;4954525;28;104296;-63
2022/04/26 05:35:15;;;;;;;23.75;21.85;;;;;;;12.17;91.91;98284.91;4965913;28;103704;-63
2022/04/26 05:37:43;;;;;;;18.63;17.23;;;;;;;12.28;92.53;98294.59;4980958;28;102729;-63
2022/04/26 05:40:12;;;;;;;22.95;21.15;;;;;;;12.50;89.78;98294.41;4950004;28;103802;-63
2022/04/26 05:42:40;;;;;;;19.50;18.00;;;;;;;12.56;90.50;98290.41;4985601;28;103301;-63
2022/04/26 05:45:08;;;;;;;14.43;13.32;;;;;;;12.79;89.72;98297.19;4956196;28;103247;-63
2022/04/26 05:47:41;;;;;;;16.15;14.95;;;;;;;12.92;88.79;98303.09;4971070;28;103163;-63
2022/04/26 05:50:11;;;;;;;17.23;15.93;;;;;;;12.89;88.36;98292.75;4967249;28;103648;-62
2022/04/26 05:52:40;;;;;;;18.20;16.70;;;;;;;12.97;88.68;98297.41;4958441;28;108964;-63
2022/04/26 05:55:09;;;;;;;18.92;17.52;;;;;;;13.02;87.87;98309.28;4966441;28;103231;-63
2022/04/26 05:57:38;;;;;;;16.90;15.60;;;;;;;13.04;87.29;98303.81;4961839;28;103376;-63
2022/04/26 06:00:08;;;;;;;24.42;22.50;;;;;;;12.43;88.95;98297.75;4982768;28;104324;-63
2022/04/26 06:02:43;;;;;;;24.60;22.52;;;;;;;11.97;93.62;98303.44;4982152;28;103304;-63
2022/04/26 06:05:19;;;;;;;23.05;21.25;;;;;;;12.13;93.99;98304.69;4981118;28;103201;-63
2022/04/26 06:07:47;;;;;;;15.83;14.63;;;;;;;12.59;92.37;98301.59;4983893;28;103071;-63
2022/04/26 06:10:16;;;;;;;19.67;18.17;;;;;;;12.65;91.22;98303.72;4980829;28;103758;-63
2022/04/26 06:12:44;;;;;;;19.40;17.90;;;;;;;12.75;90.17;98306.38;4979897;28;103034;-63
2022/04/26 06:15:13;;;;;;;20.40;18.83;;;;;;;12.65;90.33;98313.47;4981996;27;102776;-62
2022/04/26 06:17:41;;;;;;;15.63;14.43;;;;;;;12.84;90.23;98318.84;4994878;28;102704;-63
2022/04/26 06:20:12;;;;;;;18.20;16.90;;;;;;;12.93;89.24;98320.69;4991465;28;103098;-63
2022/04/26 06:22:43;;;;;;;18.70;17.10;;;;;;;12.96;88.18;98331.03;4994220;28;103301;-63
2022/04/26 06:25:12;;;;;;;16.90;15.63;;;;;;;12.96;87.48;98325.72;4975413;28;103249;-63
2022/04/26 06:27:40;;;;;;;23.13;21.33;;;;;;;12.59;88.26;98330.72;4996768;28;102906;-63
2022/04/26 06:30:08;;;;;;;16.92;15.63;;;;;;;12.82;88.57;98326.09;4992184;28;103794;-64
2022/04/26 06:32:38;;;;;;;19.67;18.17;;;;;;;12.93;88.54;98320.69;4992875;28;103942;-63
2022/04/26 06:35:07;;;;;;;18.23;16.83;;;;;;;13.04;88.30;98311.78;4975705;28;103420;-63
2022/04/26 06:37:35;;;;;;;19.63;18.13;;;;;;;13.00;87.46;98319.16;4994382;28;103082;-63
2022/04/26 06:40:05;;;;;;;17.40;16.02;;;;;;;13.06;87.31;98321.28;4995254;28;102793;-63
2022/04/26 06:42:36;;;;;;;22.13;20.33;;;;;;;12.84;88.73;98315.34;4996524;28;104085;-63
2022/04/26 06:45:04;;;;;;;19.48;17.98;;;;;;;12.87;89.12;98315.06;4997146;28;103172;-63
2022/04/26 06:47:32;;;;;;;23.60;21.60;;;;;;;12.47;89.63;98318.53;4982341;28;102798;-63
2022/04/26 06:50:00;;;;;;;31.30;28.50;;;;;;;11.65;95.46;98329.91;4978035;28;103985;-63
2022/04/26 06:52:31;;;;;;;32.92;30.05;;;;;;;11.48;96.22;98328.66;4993408;28;103591;-63
2022/04/26 06:54:59;;;;;;;25.17;23.07;;;;;;;12.15;94.33;98323.09;4996849;28;103379;-63
2022/04/26 06:57:28;;;;;;;24.65;22.67;;;;;;;12.32;93.47;98324.31;4996293;28;102968;-63
2022/04/26 06:59:56;;;;;;;19.20;17.70;;;;;;;12.52;90.08;98331.41;4996270;28;103377;-63
2022/04/26 07:02:24;;;;;;;15.88;14.68;;;;;;;12.71;88.71;98326.19;4999157;28;104137;-63
2022/04/26 07:04:53;;;;;;;16.93;15.63;;;;;;;12.73;88.98;98334.84;4996296;28;103221;-63
2022/04/26 07:07:22;;;;;;;15.07;13.90;;;;;;;12.90;87.96;98334.22;4996528;28;102943;-63
2022/04/26 07:09:50;;;;;;;18.88;17.40;;;;;;;12.90;86.48;98336.88;4995492;28;104362;-63
2022/04/26 07:12:18;;;;;;;20.70;19.08;;;;;;;12.88;87.19;98330.88;4996705;28;104394;-63
2022/04/26 07:14:47;;;;;;;18.40;17.00;;;;;;;12.95;87.08;98329.34;4999449;28;103204;-63
2022/04/26 07:17:16;;;;;;;18.33;16.88;;;;;;;12.96;88.45;98331.03;4995559;28;102755;-63
2022/04/26 07:19:47;;;;;;;20.92;19.23;;;;;;;12.95;86.41;98326.69;4973531;28;103243;-66
2022/04/26 07:22:29;;;;;;;19.25;17.75;;;;;;;12.49;88.55;98326.38;4987342;28;104044;-65
2022/04/26 07:24:57;;;;;;;13.90;12.90;;;;;;;12.65;88.09;98324.06;4976706;28;104199;-64
2022/04/26 07:27:26;;;;;;;15.93;14.63;;;;;;;12.73;86.61;98324.22;5007502;28;102825;-65
2022/04/26 07:29:55;;;;;;;13.55;12.45;;;;;;;12.65;88.77;98322.25;4994097;28;103675;-64
2022/04/26 07:34:20;;;;;;;16.92;15.63;;;;;;;12.06;91.66;98319.41;4989579;28;103730;-64
2022/04/26 07:35:12;;;;;;;15.00;13.80;;;;;;;12.98;85.61;98313.16;4973428;28;104167;-64
2022/04/26 07:37:43;;;;;;;13.20;12.07;;;;;;;12.50;86.69;98314.78;4992725;28;102733;-64
2022/04/26 07:40:11;;;;;;;12.00;11.10;;;;;;;12.96;83.94;98324.88;4987283;28;102725;-63
2022/04/26 07:42:39;;;;;;;10.50;9.70;;;;;;;12.79;85.16;98319.25;4994321;28;103308;-61
2022/04/26 07:45:12;;;;;;;10.10;9.30;;;;;;;13.12;82.98;98326.09;4994305;28;103198;-62
2022/04/26 07:47:40;;;;;;;10.00;9.20;;;;;;;12.66;81.72;98323.91;4989192;28;103033;-62
2022/04/26 07:50:08;;;;;;;10.27;9.37;;;;;;;12.70;81.99;98319.19;4993672;28;103814;-62
2022/04/26 07:52:40;;;;;;;9.20;8.50;;;;;;;13.02;81.55;98317.25;4993735;28;104125;-62
2022/04/26 07:55:10;;;;;;;10.50;9.70;;;;;;;13.42;80.79;98321.69;4994774;28;103211;-61
2022/04/26 07:57:39;;;;;;;8.00;7.40;;;;;;;13.62;80.13;98323.34;4996356;28;102673;-62
2022/04/26 08:00:09;;;;;;;10.65;9.82;;;;;;;13.28;81.79;98333.50;4991528;28;103703;-64
2022/04/26 08:02:40;;;;;;;8.90;8.20;;;;;;;13.57;80.88;98330.91;4993534;28;103381;-64
2022/04/26 08:05:09;;;;;;;8.80;8.20;;;;;;;13.63;78.84;98338.31;4997760;28;104120;-64
2022/04/26 08:07:39;;;;;;;8.37;7.77;;;;;;;13.76;79.34;98344.19;4995452;28;102894;-61
2022/04/26 08:10:08;;;;;;;10.13;9.32;;;;;;;13.26;78.93;98370.78;4996026;28;102918;-61
2022/04/26 08:12:37;;;;;;;10.20;9.43;;;;;;;13.44;79.49;98372.78;4992798;28;103691;-61
2022/04/26 08:15:06;;;;;;;10.13;9.43;;;;;;;13.41;80.94;98373.06;4994858;28;102607;-64
2022/04/26 08:17:35;;;;;;;10.35;9.45;;;;;;;13.72;78.74;98374.66;4991905;28;102576;-64
2022/04/26 08:20:06;;;;;;;9.70;9.00;;;;;;;13.34;81.51;98380.72;4997317;28;103695;-64
2022/04/26 08:22:34;;;;;;;8.88;8.18;;;;;;;13.71;81.41;98388.91;4998899;28;104009;-64
2022/04/26 08:27:47;;;;;;;9.80;9.00;;;;;;;13.90;80.28;98386.25;4997483;28;102616;-63
2022/04/26 08:30:17;;;;;;;8.73;8.13;;;;;;;14.49;80.13;98381.63;5000165;28;102887;-64
2022/04/26 08:32:49;;;;;;;10.20;9.40;;;;;;;14.17;79.34;98388.22;4998206;28;103850;-64
2022/04/26 08:35:19;;;;;;;9.63;8.93;;;;;;;14.09;81.37;98394.22;4998751;28;103312;-64
2022/04/26 08:37:47;;;;;;;9.02;8.38;;;;;;;14.32;78.88;98393.00;4997354;28;102642;-61
2022/04/26 08:40:15;;;;;;;10.18;9.38;;;;;;;14.06;77.74;98401.66;4979959;28;103607;-61
2022/04/26 08:42:45;;;;;;;10.97;10.07;;;;;;;13.86;78.22;98414.09;4998151;28;104112;-61
2022/04/26 08:45:15;;;;;;;9.40;8.60;;;;;;;14.29;78.14;98403.88;4997590;28;103238;-61
2022/04/26 08:53:21;;;;;;;10.00;9.20;;;;;;;14.47;70.68;98414.66;5007281;28;103076;-65
2022/04/26 08:55:52;;;;;;;9.33;8.47;;;;;;;14.76;69.96;98409.31;4998776;28;103069;-65
2022/04/26 08:58:22;;;;;;;8.17;7.57;;;;;;;15.00;70.36;98414.97;4997662;28;102937;-65
2022/04/26 09:01:11;;;;;;;10.43;9.57;;;;;;;14.19;70.67;98413.69;4995786;28;104496;-65
2022/04/26 09:03:41;;;;;;;10.68;9.77;;;;;;;13.81;71.88;98414.47;4996999;28;103661;-65
2022/04/26 09:06:13;;;;;;;9.33;8.63;;;;;;;14.13;71.07;98419.53;4997064;28;103275;-65
2022/04/26 09:08:47;;;;;;;9.37;8.57;;;;;;;14.44;70.99;98418.44;4977866;28;104358;-65
2022/04/26 09:11:24;;;;;;;10.30;9.40;;;;;;;13.77;72.40;98422.88;4996043;28;103830;-65
2022/04/26 09:13:52;;;;;;;10.07;9.18;;;;;;;13.97;71.75;98427.22;4995425;28;103303;-65
2022/04/26 09:16:23;;;;;;;9.93;9.02;;;;;;;13.79;70.98;98420.91;4997040;28;103216;-65
2022/04/26 09:18:54;;;;;;;8.63;7.93;;;;;;;14.45;69.70;98420.13;4975152;28;103261;-62
2022/04/26 09:21:26;;;;;;;9.48;8.57;;;;;;;13.97;69.34;98429.88;4994803;28;103028;-65
2022/04/26 09:23:59;;;;;;;10.23;9.32;;;;;;;14.13;71.06;98429.31;4995825;28;104370;-65
2022/04/26 09:26:35;;;;;;;9.80;9.00;;;;;;;14.21;70.53;98432.97;4991969;28;103413;-65
2022/04/26 09:29:04;;;;;;;9.70;8.93;;;;;;;14.67;67.48;98439.41;4995639;28;102997;-65
2022/04/26 09:31:34;;;;;;;9.43;8.63;;;;;;;14.71;65.21;98435.50;4996520;28;103607;-65
2022/04/26 09:34:10;;;;;;;9.03;8.33;;;;;;;14.90;68.12;98432.78;4978154;28;104098;-65
2022/04/26 09:36:46;;;;;;;9.90;9.00;;;;;;;15.09;65.22;98430.91;4997843;28;103252;-65
2022/04/26 09:39:18;;;;;;;9.73;8.82;;;;;;;15.73;66.14;98434.53;4990863;28;102652;-65
2022/04/26 09:42:07;;;;;;;8.07;7.40;;;;;;;16.03;63.54;98437.69;4994263;28;103824;-65
2022/04/26 09:44:38;;;;;;;9.07;8.20;;;;;;;17.00;62.47;98424.34;4996713;28;103390;-65
2022/04/26 09:47:06;;;;;;;8.30;7.60;;;;;;;17.39;58.99;98431.75;4997154;28;103207;-65
2022/04/26 09:49:39;;;;;;;8.98;8.15;;;;;;;16.95;61.05;98432.00;4990344;28;103204;-65
2022/04/26 09:52:13;;;;;;;8.63;7.78;;;;;;;17.01;62.48;98431.38;4991941;28;104054;-65
2022/04/26 09:54:42;;;;;;;8.33;7.57;;;;;;;16.79;58.57;98428.22;4996869;28;104862;-65
2022/04/26 09:57:15;;;;;;;7.38;6.50;;;;;;;16.91;57.02;98427.97;4995854;28;103172;-66
2022/04/26 10:00:05;;;;;;;6.85;6.25;;;;;;;17.22;59.41;98434.50;4995247;28;102667;-62
2022/04/26 10:02:37;;;;;;;7.30;6.70;;;;;;;17.39;57.60;98428.25;4993620;28;104214;-62
2022/04/26 10:05:07;;;;;;;8.48;7.63;;;;;;;18.07;56.44;98426.31;4994736;28;104127;-62
2022/04/26 10:07:38;;;;;;;7.68;6.90;;;;;;;18.02;56.49;98431.31;4995562;28;103178;-61
2022/04/26 10:10:06;;;;;;;6.57;5.97;;;;;;;17.50;54.56;98433.28;4993824;28;103682;-62
2022/04/26 10:12:36;;;;;;;6.80;6.22;;;;;;;17.70;53.47;98428.56;4977304;28;102754;-61
2022/04/26 10:15:06;;;;;;;6.70;6.05;;;;;;;17.76;56.35;98430.59;4987513;28;103708;-62
2022/04/26 10:17:34;;;;;;;7.85;7.05;;;;;;;16.69;54.90;98432.84;4977308;28;103287;-62
2022/04/26 10:20:03;;;;;;;7.57;6.97;;;;;;;16.61;55.53;98430.09;4990197;28;103062;-62
2022/04/26 10:22:58;;;;;;;7.57;6.88;;;;;;;17.15;56.32;98431.59;4995524;28;102830;-62
2022/04/26 10:25:27;;;;;;;7.05;6.35;;;;;;;17.21;54.48;98433.66;4992787;28;103228;-62
2022/04/26 10:28:21;;;;;;;5.93;5.43;;;;;;;17.49;54.61;98436.13;4993999;28;103285;-62
2022/04/26 10:30:50;;;;;;;6.15;5.15;;;;;;;18.07;54.90;98430.84;4995044;28;103241;-62
2022/04/26 10:33:38;;;;;;;5.53;5.05;;;;;;;17.82;53.88;98420.06;4976984;28;103981;-62
2022/04/26 10:36:34;;;;;;;5.63;5.13;;;;;;;16.78;52.20;98423.06;4995662;28;103513;-62
2022/04/26 10:39:23;;;;;;;5.30;4.78;;;;;;;17.68;50.74;98427.91;4993438;28;103225;-62
2022/04/26 10:41:51;;;;;;;5.45;4.78;;;;;;;17.32;50.25;98428.03;4994158;28;102596;-62
2022/04/26 10:44:26;;;;;;;5.43;4.93;;;;;;;17.17;52.06;98428.81;4997214;28;104289;-62
2022/04/26 10:47:23;;;;;;;5.30;4.80;;;;;;;17.17;49.87;98423.47;4993184;28;104064;-61
2022/04/26 10:49:52;;;;;;;4.35;3.95;;;;;;;17.52;50.62;98425.94;4992978;28;103474;-62
2022/04/26 10:52:44;;;;;;;5.63;4.28;;;;;;;17.60;51.10;98426.00;4994728;28;102828;-61
2022/04/26 10:55:19;;;;;;;6.27;4.43;;;;;;;17.44;50.87;98423.25;4994651;28;102999;-62
2022/04/26 10:57:53;;;;;;;5.07;4.40;;;;;;;18.35;50.62;98422.34;4990632;28;104042;-63
2022/04/26 11:00:28;;;;;;;4.03;3.63;;;;;;;19.08;49.08;98425.84;4990052;28;103211;-62
2022/04/26 11:03:02;;;;;;;4.38;3.97;;;;;;;19.17;46.99;98420.47;4993235;28;102936;-62
2022/04/26 11:05:34;;;;;;;6.38;5.20;;;;;;;19.07;47.58;98431.34;5008625;28;102864;-62
2022/04/26 11:08:05;;;;;;;5.35;4.80;;;;;;;19.48;47.32;98421.41;4979267;28;104437;-63
2022/04/26 11:13:22;;;;;;;7.53;6.93;;;;;;;15.95;57.31;98460.75;4986825;28;102706;-62
2022/04/26 11:16:05;;;;;;;8.38;7.68;;;;;;;14.90;61.98;98475.34;4990006;28;102727;-63
2022/04/26 11:18:34;;;;;;;7.45;6.78;;;;;;;15.37;61.28;98482.34;4986641;28;103098;-63
2022/04/26 11:21:05;;;;;;;7.40;6.70;;;;;;;15.49;61.45;98481.22;4991113;28;103150;-62
2022/04/26 11:29:27;;;;;;;7.35;6.82;;;;;;;14.94;63.27;98498.84;4987402;28;103234;-62
2022/04/26 11:31:55;;;;;;;7.57;7.07;;;;;;;14.37;64.43;98504.19;4987211;28;103093;-62
2022/04/26 11:34:43;;;;;;;7.35;6.75;;;;;;;15.13;65.29;98507.78;4982562;28;103958;-63
2022/04/26 11:37:14;;;;;;;7.23;6.63;;;;;;;14.29;65.57;98515.47;4994023;28;102979;-62
2022/04/26 11:39:43;;;;;;;7.15;6.55;;;;;;;14.61;61.91;98514.41;4986225;28;103301;-63
2022/04/26 11:42:13;;;;;;;6.40;5.90;;;;;;;14.79;61.84;98512.72;4987683;28;103778;-62
2022/04/26 11:45:01;;;;;;;5.88;5.38;;;;;;;15.49;58.55;98518.47;4987857;28;102725;-62
2022/04/26 11:47:44;;;;;;;5.90;5.40;;;;;;;15.70;57.95;98514.72;4987237;28;104086;-63
2022/04/26 11:50:15;;;;;;;5.60;5.10;;;;;;;16.03;58.45;98506.97;4988986;28;103997;-63
2022/04/26 11:52:44;;;;;;;5.67;5.20;;;;;;;15.38;58.48;98510.59;4990994;28;103913;-62
2022/04/26 11:55:22;;;;;;;5.57;5.07;;;;;;;14.82;59.53;98507.13;4994469;28;102681;-62
2022/04/26 11:57:52;;;;;;;5.60;5.20;;;;;;;15.34;59.64;98508.41;4991899;28;102576;-66
2022/04/26 12:00:22;;;;;;;5.03;4.63;;;;;;;15.75;58.92;98515.16;4993554;28;104126;-66
2022/04/26 12:02:50;;;;;;;5.30;4.80;;;;;;;16.15;57.60;98518.25;4991798;28;104155;-66
2022/04/26 12:05:22;;;;;;;5.57;5.18;;;;;;;15.98;59.49;98514.59;4990607;28;102657;-65
2022/04/26 12:07:51;;;;;;;4.72;4.35;;;;;;;15.50;57.31;98525.47;4994214;28;103786;-66
2022/04/26 12:10:32;;;;;;;4.93;4.40;;;;;;;16.25;55.73;98503.88;4991235;28;103710;-66
2022/04/26 12:13:05;;;;;;;4.72;4.43;;;;;;;16.96;54.72;98505.72;4992186;28;103120;-62
2022/04/26 12:15:35;;;;;;;5.27;4.77;;;;;;;15.38;56.48;98520.44;5009972;28;103112;-62
2022/04/26 12:18:13;;;;;;;6.27;5.77;;;;;;;15.99;56.09;98531.41;4992506;28;103361;-62
2022/04/26 12:20:58;;;;;;;6.60;6.00;;;;;;;15.61;55.56;98527.94;4992793;28;104103;-66
2022/04/26 12:23:27;;;;;;;6.88;6.07;;;;;;;15.64;57.66;98537.44;4987862;28;103258;-66
2022/04/26 12:25:57;;;;;;;6.10;5.60;;;;;;;16.22;56.37;98527.34;4987464;28;103955;-66
2022/04/26 12:28:26;;;;;;;6.88;6.28;;;;;;;15.88;57.95;98532.44;4990504;28;104152;-67
2022/04/26 12:30:55;;;;;;;7.40;6.70;;;;;;;16.11;57.94;98540.88;4991140;28;104461;-66
2022/04/26 12:33:31;;;;;;;6.68;6.18;;;;;;;15.81;59.73;98549.16;4992735;28;103229;-66
2022/04/26 12:36:01;;;;;;;4.90;4.40;;;;;;;14.21;57.46;98564.97;4986547;28;102915;-66
2022/04/26 12:38:29;;;;;;;4.00;3.20;;;;;;;14.37;57.28;98544.88;4988575;28;104236;-65
2022/04/26 12:41:02;;;;;;;3.08;2.70;;;;;;;15.26;55.28;98545.53;4996576;28;103371;-67
2022/04/26 12:43:33;;;;;;;3.00;2.80;;;;;;;15.54;53.62;98553.47;4988584;28;103326;-66
2022/04/26 12:46:03;;;;;;;2.80;2.60;;;;;;;14.84;55.11;98558.34;4992514;28;102750;-66
2022/04/26 12:51:20;;;;;;;3.70;3.37;;;;;;;13.81;60.02;98573.78;4989126;28;104265;-61
2022/04/26 12:54:08;;;;;;;3.33;3.05;;;;;;;14.37;59.76;98571.47;4988526;28;102988;-60
2022/04/26 12:56:37;;;;;;;3.80;3.50;;;;;;;13.65;63.06;98580.56;4992128;28;103023;-63
2022/04/26 12:59:15;;;;;;;4.10;2.70;;;;;;;14.81;61.48;98587.88;4993601;28;102717;-63
2022/04/26 13:01:46;;;;;;;2.27;2.10;;;;;;;14.27;61.50;98585.69;4994785;28;103738;-60
2022/04/26 13:04:14;;;;;;;1.95;1.75;;;;;;;15.35;58.69;98588.13;4967861;28;103191;-62
2022/04/26 13:06:44;;;;;;;1.70;1.60;;;;;;;15.18;61.42;98599.47;4985078;28;102999;-62
2022/04/26 13:09:32;;;;;;;1.80;1.27;;;;;;;14.92;59.15;98598.38;4989144;28;103560;-67
2022/04/26 13:12:00;;;;;;;1.67;1.13;;;;;;;14.15;62.44;98594.72;4977515;28;104074;-67
2022/04/26 13:14:31;;;;;;;1.17;1.08;;;;;;;15.19;60.80;98593.16;4976572;28;103232;-66
2022/04/26 13:17:20;;;;;;;1.27;1.17;;;;;;;15.33;60.61;98587.41;4987882;28;102699;-65
2022/04/26 13:19:48;;;;;;;1.40;1.30;;;;;;;15.96;58.68;98590.31;4978712;27;104491;-65
2022/04/26 13:22:18;;;;;;;1.30;1.20;;;;;;;16.14;57.60;98588.56;4990514;28;103935;-61
2022/04/26 13:24:46;;;;;;;1.50;1.40;;;;;;;15.51;55.89;98588.38;4997630;28;103227;-65
2022/04/26 13:27:14;;;;;;;2.15;1.30;;;;;;;15.01;57.82;98595.72;4985380;28;102673;-66
2022/04/26 13:29:43;;;;;;;1.38;1.20;;;;;;;15.94;56.03;98597.63;4960809;28;102848;-66
2022/04/26 13:32:11;;;;;;;1.35;1.25;;;;;;;16.37;54.20;98586.31;4978460;28;104114;-67
2022/04/26 13:34:41;;;;;;;3.17;1.50;;;;;;;16.81;53.00;98580.16;4970540;28;103200;-62
2022/04/26 13:37:09;;;;;;;1.98;1.60;;;;;;;15.26;54.55;98586.31;4992579;28;102659;-62
2022/04/26 13:39:39;;;;;;;1.70;1.60;;;;;;;15.63;55.73;98592.53;4988381;28;103688;-63
2022/04/26 13:42:07;;;;;;;2.10;1.90;;;;;;;15.76;55.46;98583.38;4993566;28;104138;-62
2022/04/26 13:44:35;;;;;;;2.60;2.35;;;;;;;16.45;53.27;98581.91;4989953;28;103245;-67
2022/04/26 13:47:06;;;;;;;2.30;2.20;;;;;;;16.75;52.21;98578.94;4987708;28;102612;-63
2022/04/26 13:49:39;;;;;;;2.90;2.30;;;;;;;16.58;52.67;98577.09;4982194;28;104082;-67
2022/04/26 13:52:09;;;;;;;2.97;2.78;;;;;;;15.37;54.15;98578.16;4988903;28;103943;-67
2022/04/26 13:54:37;;;;;;;3.35;3.15;;;;;;;15.84;53.27;98587.00;4995255;28;103209;-63
2022/04/26 13:57:06;;;;;;;3.05;2.85;;;;;;;16.29;51.59;98581.72;4990739;28;103046;-63
2022/04/26 13:59:34;;;;;;;3.28;3.03;;;;;;;15.49;51.86;98589.50;4990374;28;102641;-63
2022/04/26 14:02:06;;;;;;;3.33;3.10;;;;;;;16.46;51.35;98588.06;4993453;28;104650;-67
2022/04/26 14:04:36;;;;;;;2.90;2.70;;;;;;;16.34;53.47;98591.94;4997951;28;102953;-67
2022/04/26 14:07:05;;;;;;;2.78;2.58;;;;;;;15.52;53.13;98598.03;4994387;28;102628;-67
2022/04/26 14:09:34;;;;;;;3.20;2.95;;;;;;;15.31;53.99;98594.69;4990817;28;103896;-63
2022/04/26 14:12:04;;;;;;;3.03;2.73;;;;;;;15.98;52.55;98585.69;4991610;28;103547;-63
2022/04/26 14:22:54;;;;;;;3.10;2.80;;;;;;;14.49;55.89;98590.78;4992350;28;104418;-65
2022/04/26 14:25:23;;;;;;;3.00;2.80;;;;;;;15.31;54.95;98596.50;4993273;28;104382;-62
2022/04/26 14:27:51;;;;;;;3.47;3.17;;;;;;;15.87;54.06;98589.38;4989807;28;103454;-62
2022/04/26 14:30:22;;;;;;;3.20;3.00;;;;;;;15.79;53.69;98593.75;4993832;28;103035;-62
2022/04/26 14:33:13;;;;;;;3.58;3.30;;;;;;;15.41;53.17;98594.69;4991576;28;103885;-63
2022/04/26 14:35:41;;;;;;;3.67;3.20;;;;;;;15.47;53.42;98594.13;4997832;28;103253;-63
2022/04/26 14:38:10;;;;;;;3.85;3.30;;;;;;;15.43;52.79;98593.56;4991324;28;102664;-62
2022/04/26 14:40:38;;;;;;;3.28;2.78;;;;;;;15.79;52.18;98596.41;4993221;28;104089;-62
2022/04/26 14:43:09;;;;;;;3.10;2.80;;;;;;;15.39;51.90;98589.50;4988214;28;103403;-63
2022/04/26 14:45:44;;;;;;;3.05;2.75;;;;;;;15.43;52.59;98585.56;4987559;28;103211;-63
2022/04/26 14:48:16;;;;;;;3.00;2.80;;;;;;;15.64;52.03;98594.22;4990915;28;103032;-63
2022/04/26 14:50:53;;;;;;;2.77;2.57;;;;;;;16.45;52.66;98584.56;4991331;28;104043;-63
2022/04/26 14:53:25;;;;;;;3.00;2.70;;;;;;;16.08;51.96;98591.81;4991358;28;103968;-63
2022/04/26 14:56:10;;;;;;;2.63;2.43;;;;;;;15.40;51.94;98585.00;4999675;28;103434;-63
2022/04/26 14:59:00;;;;;;;2.40;2.20;;;;;;;15.82;52.26;98593.47;4991515;28;103017;-63
2022/04/26 15:01:36;;;;;;;2.25;2.00;;;;;;;15.74;52.04;98596.03;4993188;28;102712;-63
2022/04/26 15:04:06;;;;;;;1.92;1.80;;;;;;;16.15;51.47;98595.56;4978393;28;104245;-63
2022/04/26 15:06:36;;;;;;;2.30;2.10;;;;;;;15.91;52.19;98595.25;4993859;28;103730;-63
2022/04/26 15:16:37;;;;;;;2.30;2.10;;;;;;;15.96;51.99;98595.66;4990096;28;103883;-63
2022/04/26 15:17:27;;;;;;;3.05;2.30;;;;;;;16.01;52.10;98599.53;4977167;28;104122;-62
2022/04/26 15:19:57;;;;;;;3.10;2.80;;;;;;;15.04;54.90;98602.56;4990216;28;102740;-68
2022/04/26 15:22:26;;;;;;;2.47;2.20;;;;;;;14.70;55.83;98614.59;4981306;28;103208;-68
2022/04/26 15:24:54;;;;;;;2.92;2.40;;;;;;;14.63;56.84;98613.47;4990692;28;104093;-68
2022/04/26 15:27:22;;;;;;;2.80;2.60;;;;;;;13.95;60.15;98615.06;4997327;28;103258;-68
2022/04/26 15:29:53;;;;;;;3.00;2.70;;;;;;;13.90;58.33;98622.59;5002274;28;102728;-68
2022/04/26 15:32:25;;;;;;;3.30;2.80;;;;;;;14.59;58.38;98625.38;5002518;28;102905;-68
2022/04/26 15:34:53;;;;;;;2.33;2.20;;;;;;;15.11;55.72;98619.66;4999324;28;103786;-68
2022/04/26 15:37:25;;;;;;;2.58;2.30;;;;;;;15.25;55.71;98615.69;5003715;28;103258;-68
2022/04/26 15:39:54;;;;;;;2.92;2.63;;;;;;;14.44;56.64;98619.59;4998927;28;102649;-68
2022/04/26 15:42:22;;;;;;;2.90;2.70;;;;;;;14.76;56.51;98619.38;4999054;28;103666;-68
2022/04/26 15:44:51;;;;;;;2.90;2.70;;;;;;;15.13;55.62;98619.53;4998286;28;104153;-68
2022/04/26 15:47:20;;;;;;;2.83;2.50;;;;;;;15.57;55.41;98611.78;4997759;28;103227;-68
2022/04/26 15:49:48;;;;;;;3.30;3.00;;;;;;;15.25;55.26;98621.88;4981082;28;102964;-68